Time;durP1;ratioP1;P1;durP2;ratioP2;P2;SDS_P1;SDS_P2;PMS_P1;PMS_P2;Temp;Humidity;BMP_temperature;BMP_pressure;BME280_temperature;BME280_humidity;BME280_pressure;Samples;Min_cycle;Max_cycle;Signal;HPM_P1;HPM_P2
2022/09/02 00:01:32;;;;;;;;;;;25.50;78.50;;;;;;5044612;28;19936;-61
2022/09/02 00:04:04;;;;;;;;;;;25.50;78.50;;;;;;5047428;28;19928;-64
2022/09/02 00:06:32;;;;;;;;;;;25.60;78.60;;;;;;5052846;28;19929;-59
2022/09/02 00:09:00;;;;;;;;;;;25.50;78.50;;;;;;5044886;28;19928;-59
2022/09/02 00:11:28;;;;;;;;;;;25.60;78.60;;;;;;5049035;28;19928;-61
2022/09/02 00:13:56;;;;;;;;;;;25.50;78.50;;;;;;5051578;28;19936;-58
2022/09/02 00:16:24;;;;;;;;;;;25.60;78.60;;;;;;5033964;28;19929;-54
2022/09/02 00:18:52;;;;;;;;;;;25.50;78.60;;;;;;5055850;28;19929;-60
2022/09/02 00:21:20;;;;;;;;;;;25.50;78.60;;;;;;5057413;28;19925;-58
2022/09/02 00:23:47;;;;;;;;;;;25.50;78.50;;;;;;5048227;28;19928;-59
2022/09/02 00:26:14;;;;;;;;;;;25.50;78.60;;;;;;5054391;28;20423;-59
2022/09/02 00:28:42;;;;;;;;;;;25.50;78.60;;;;;;5045385;28;19929;-61
2022/09/02 00:31:26;;;;;;;;;;;25.50;78.60;;;;;;5043128;28;19929;-59
2022/09/02 00:33:53;;;;;;;;;;;25.50;78.60;;;;;;5036287;28;19936;-62
2022/09/02 00:36:21;;;;;;;;;;;25.50;78.60;;;;;;5056800;28;19928;-58
2022/09/02 00:38:48;;;;;;;;;;;25.50;78.60;;;;;;5038855;28;19928;-60
2022/09/02 00:41:17;;;;;;;;;;;25.50;78.60;;;;;;5054896;28;19929;-63
2022/09/02 00:43:48;;;;;;;;;;;25.50;78.60;;;;;;5048668;28;19933;-58
2022/09/02 00:46:16;;;;;;;;;;;25.50;78.60;;;;;;5059620;28;20406;-61
2022/09/02 00:48:47;;;;;;;;;;;25.50;78.60;;;;;;5037292;28;20320;-62
2022/09/02 00:51:15;;;;;;;;;;;25.50;78.60;;;;;;5035011;28;19932;-57
2022/09/02 00:53:43;;;;;;;;;;;25.50;78.60;;;;;;5049108;28;19933;-60
2022/09/02 00:56:13;;;;;;;;;;;25.50;78.70;;;;;;5025199;28;19936;-61
2022/09/02 00:58:41;;;;;;;;;;;25.50;79.20;;;;;;5048480;28;19931;-60
2022/09/02 01:01:10;;;;;;;;;;;25.50;78.60;;;;;;5024633;28;20384;-58
2022/09/02 01:03:38;;;;;;;;;;;25.50;78.60;;;;;;5061706;28;19924;-61
2022/09/02 01:06:06;;;;;;;;;;;25.50;78.60;;;;;;5024236;28;19936;-59
2022/09/02 01:08:35;;;;;;;;;;;25.50;78.70;;;;;;5044254;28;19929;-63
2022/09/02 01:11:05;;;;;;;;;;;25.50;78.70;;;;;;5058469;28;19929;-59
2022/09/02 01:13:35;;;;;;;;;;;25.40;78.60;;;;;;5039713;28;19943;-63
2022/09/02 01:16:14;;;;;;;;;;;25.40;78.60;;;;;;5055996;28;20375;-59
2022/09/02 01:18:44;;;;;;;;;;;25.40;78.60;;;;;;5044267;28;19936;-61
2022/09/02 01:21:11;;;;;;;;;;;25.50;78.70;;;;;;5061280;28;19936;-60
2022/09/02 01:23:39;;;;;;;;;;;25.50;78.70;;;;;;5032376;28;19936;-61
2022/09/02 01:26:06;;;;;;;;;;;25.40;78.70;;;;;;5053193;28;19932;-60
2022/09/02 01:28:33;;;;;;;;;;;25.40;78.60;;;;;;5047784;28;19928;-61
2022/09/02 01:31:01;;;;;;;;;;;25.40;78.60;;;;;;5029206;28;20572;-58
2022/09/02 01:33:28;;;;;;;;;;;25.40;78.60;;;;;;5058026;28;19932;-60
2022/09/02 01:35:58;;;;;;;;;;;25.40;78.60;;;;;;5049046;28;19929;-61
2022/09/02 01:38:25;;;;;;;;;;;25.40;78.70;;;;;;5035195;28;19929;-61
2022/09/02 01:40:53;;;;;;;;;;;25.40;78.70;;;;;;5044696;28;19952;-62
2022/09/02 01:43:22;;;;;;;;;;;25.40;78.70;;;;;;5048139;28;19929;-63
2022/09/02 01:45:51;;;;;;;;;;;25.40;78.70;;;;;;5052467;28;19931;-60
2022/09/02 01:48:20;;;;;;;;;;;25.40;78.70;;;;;;5037437;28;19924;-62
2022/09/02 01:50:51;;;;;;;;;;;25.40;78.70;;;;;;5048850;28;19924;-63
2022/09/02 01:53:18;;;;;;;;;;;25.40;78.70;;;;;;5069320;28;19936;-61
2022/09/02 01:55:46;;;;;;;;;;;25.40;78.70;;;;;;5063499;28;19935;-70
2022/09/02 01:58:13;;;;;;;;;;;25.40;78.70;;;;;;5048511;28;20442;-60
2022/09/02 02:00:40;;;;;;;;;;;25.40;78.70;;;;;;5046174;28;19948;-63
2022/09/02 02:03:07;;;;;;;;;;;25.40;78.70;;;;;;5059719;28;20308;-63
2022/09/02 02:05:35;;;;;;;;;;;25.40;78.70;;;;;;5041116;28;19928;-63
2022/09/02 02:08:03;;;;;;;;;;;25.40;78.70;;;;;;5047587;28;20270;-62
2022/09/02 02:10:30;;;;;;;;;;;25.40;78.70;;;;;;5058936;28;19937;-62
2022/09/02 02:12:59;;;;;;;;;;;25.40;78.70;;;;;;5062522;28;19951;-60
2022/09/02 02:15:30;;;;;;;;;;;25.40;78.70;;;;;;5053611;28;19928;-62
2022/09/02 02:17:56;;;;;;;;;;;25.40;78.70;;;;;;5058698;28;19917;-61
2022/09/02 02:20:25;;;;;;;;;;;25.40;78.70;;;;;;5062626;28;20384;-62
2022/09/02 02:22:53;;;;;;;;;;;25.40;78.70;;;;;;5049457;28;19939;-58
2022/09/02 02:25:20;;;;;;;;;;;25.40;79.30;;;;;;5055075;28;19936;-60
2022/09/02 02:27:51;;;;;;;;;;;25.40;79.30;;;;;;5032102;28;19936;-61
2022/09/02 02:30:20;;;;;;;;;;;25.40;78.70;;;;;;5043866;28;19936;-60
2022/09/02 02:32:48;;;;;;;;;;;25.30;78.60;;;;;;5056078;28;20262;-60
2022/09/02 02:35:18;;;;;;;;;;;25.30;78.60;;;;;;5036696;28;20327;-61
2022/09/02 02:37:48;;;;;;;;;;;25.30;78.60;;;;;;5034107;28;20377;-63
2022/09/02 02:40:16;;;;;;;;;;;25.30;78.60;;;;;;5029154;28;20395;-60
2022/09/02 02:42:43;;;;;;;;;;;25.30;78.70;;;;;;5051460;28;19936;-61
2022/09/02 02:45:11;;;;;;;;;;;25.30;78.70;;;;;;5054863;28;19928;-61
2022/09/02 02:47:44;;;;;;;;;;;25.30;78.70;;;;;;5042513;28;19936;-60
2022/09/02 02:50:14;;;;;;;;;;;25.30;78.70;;;;;;5025279;28;19991;-60
2022/09/02 02:52:41;;;;;;;;;;;25.30;79.30;;;;;;5041990;28;19929;-60
2022/09/02 02:55:11;;;;;;;;;;;25.30;78.70;;;;;;5034812;28;19912;-60
2022/09/02 02:57:39;;;;;;;;;;;25.30;78.70;;;;;;5072771;28;19913;-62
2022/09/02 03:00:09;;;;;;;;;;;25.30;78.70;;;;;;5051666;28;19939;-63
2022/09/02 03:02:37;;;;;;;;;;;25.30;78.70;;;;;;5060627;28;20454;-58
2022/09/02 03:05:06;;;;;;;;;;;25.30;78.70;;;;;;5056750;28;19980;-58
2022/09/02 03:07:34;;;;;;;;;;;25.30;79.30;;;;;;5047046;28;20403;-59
2022/09/02 03:10:07;;;;;;;;;;;25.30;78.70;;;;;;5029663;28;20347;-63
2022/09/02 03:12:34;;;;;;;;;;;25.30;78.80;;;;;;5026023;28;19932;-61
2022/09/02 03:15:03;;;;;;;;;;;25.30;78.80;;;;;;5038395;28;19928;-62
2022/09/02 03:17:30;;;;;;;;;;;25.30;78.80;;;;;;5049708;28;19936;-63
2022/09/02 03:19:58;;;;;;;;;;;25.30;78.80;;;;;;5046110;28;19929;-62
2022/09/02 03:22:28;;;;;;;;;;;25.20;78.70;;;;;;5030808;28;19933;-60
2022/09/02 03:24:55;;;;;;;;;;;25.20;78.70;;;;;;5033011;28;20400;-60
2022/09/02 03:27:23;;;;;;;;;;;25.20;78.70;;;;;;5030002;28;19928;-60
2022/09/02 03:29:50;;;;;;;;;;;25.20;78.70;;;;;;5045720;28;19929;-61
2022/09/02 03:32:17;;;;;;;;;;;25.20;78.70;;;;;;5040530;28;20419;-63
2022/09/02 03:34:46;;;;;;;;;;;25.20;78.70;;;;;;5035973;28;19928;-62
2022/09/02 03:37:13;;;;;;;;;;;25.20;78.80;;;;;;5027653;28;19939;-62
2022/09/02 03:39:41;;;;;;;;;;;25.20;78.80;;;;;;5024999;28;20493;-62
2022/09/02 03:42:08;;;;;;;;;;;25.20;78.70;;;;;;5015941;28;19930;-62
2022/09/02 03:44:47;;;;;;;;;;;25.20;78.70;;;;;;5030044;28;20428;-62
2022/09/02 03:47:16;;;;;;;;;;;25.20;78.70;;;;;;5024068;28;19936;-62
2022/09/02 03:49:46;;;;;;;;;;;25.20;78.70;;;;;;5036137;28;19925;-62
2022/09/02 03:52:14;;;;;;;;;;;25.20;78.80;;;;;;5030256;28;19932;-61
2022/09/02 03:54:41;;;;;;;;;;;25.20;78.80;;;;;;5033527;28;19929;-60
2022/09/02 03:57:08;;;;;;;;;;;25.20;78.80;;;;;;5032817;28;20396;-61
2022/09/02 03:59:36;;;;;;;;;;;25.20;78.80;;;;;;5040338;28;19983;-62
2022/09/02 04:02:03;;;;;;;;;;;25.20;78.80;;;;;;5042979;28;19940;-61
2022/09/02 04:04:32;;;;;;;;;;;25.20;78.80;;;;;;5033589;28;19932;-60
2022/09/02 04:06:59;;;;;;;;;;;25.20;78.80;;;;;;5043885;28;19932;-61
2022/09/02 04:09:27;;;;;;;;;;;25.20;78.80;;;;;;5037886;28;19975;-61
2022/09/02 04:11:54;;;;;;;;;;;25.20;78.80;;;;;;5029443;28;19929;-60
2022/09/02 04:14:21;;;;;;;;;;;25.20;78.80;;;;;;5021997;28;19929;-60
2022/09/02 04:23:35;;;;;;;;;;;25.20;78.80;;;;;;5032610;28;19936;-62
2022/09/02 04:26:07;;;;;;;;;;;25.10;78.80;;;;;;5045233;28;19935;-62
2022/09/02 04:28:34;;;;;;;;;;;25.20;79.40;;;;;;5051456;28;20304;-62
2022/09/02 04:31:03;;;;;;;;;;;25.10;78.80;;;;;;5042554;28;19944;-60
2022/09/02 04:33:31;;;;;;;;;;;25.10;78.80;;;;;;5039465;28;20443;-61
2022/09/02 04:35:58;;;;;;;;;;;25.10;78.80;;;;;;5043950;28;19925;-62
2022/09/02 04:38:26;;;;;;;;;;;25.10;78.80;;;;;;5044273;28;19925;-60
2022/09/02 04:40:53;;;;;;;;;;;25.10;78.80;;;;;;5036399;28;19940;-61
2022/09/02 04:43:21;;;;;;;;;;;25.10;78.80;;;;;;5039932;28;19929;-61
2022/09/02 04:45:50;;;;;;;;;;;25.10;78.80;;;;;;5040638;28;20308;-61
2022/09/02 04:48:18;;;;;;;;;;;25.10;78.80;;;;;;5042796;28;19930;-60
2022/09/02 04:50:47;;;;;;;;;;;25.10;78.80;;;;;;5032255;28;20340;-60
2022/09/02 04:53:15;;;;;;;;;;;25.10;78.80;;;;;;5039943;28;19929;-62
2022/09/02 04:55:43;;;;;;;;;;;25.10;78.80;;;;;;5038911;28;20173;-62
2022/09/02 04:58:13;;;;;;;;;;;25.10;78.80;;;;;;5033393;28;19930;-61
2022/09/02 05:00:41;;;;;;;;;;;25.10;78.80;;;;;;5026476;28;19936;-62
2022/09/02 05:03:11;;;;;;;;;;;25.00;78.80;;;;;;5037297;28;19924;-62
2022/09/02 05:05:41;;;;;;;;;;;25.10;78.80;;;;;;5032127;28;20324;-58
2022/09/02 05:08:11;;;;;;;;;;;25.10;78.80;;;;;;5043065;28;19930;-61
2022/09/02 05:10:40;;;;;;;;;;;25.10;78.80;;;;;;5030179;28;20313;-61
2022/09/02 05:13:07;;;;;;;;;;;25.10;78.80;;;;;;5031981;28;19948;-61
2022/09/02 05:15:38;;;;;;;;;;;25.10;78.80;;;;;;5039333;28;19932;-62
2022/09/02 05:18:06;;;;;;;;;;;25.10;78.80;;;;;;5042087;28;20389;-59
2022/09/02 05:20:36;;;;;;;;;;;25.00;78.80;;;;;;5053793;28;19929;-59
2022/09/02 05:23:05;;;;;;;;;;;25.00;78.80;;;;;;5033256;28;19932;-58
2022/09/02 05:25:32;;;;;;;;;;;25.00;78.80;;;;;;5040159;28;19940;-61
2022/09/02 05:28:00;;;;;;;;;;;25.00;78.80;;;;;;5040798;28;19936;-57
2022/09/02 05:30:27;;;;;;;;;;;25.00;78.80;;;;;;5034330;28;19929;-58
2022/09/02 05:32:54;;;;;;;;;;;25.00;78.80;;;;;;5042810;28;19933;-61
2022/09/02 05:35:22;;;;;;;;;;;25.00;78.80;;;;;;5026731;28;20348;-60
2022/09/02 05:37:51;;;;;;;;;;;25.00;78.80;;;;;;5035516;28;19929;-60
2022/09/02 05:40:23;;;;;;;;;;;25.00;78.80;;;;;;5061222;28;19932;-59
2022/09/02 05:42:55;;;;;;;;;;;25.00;78.90;;;;;;5045856;28;20367;-59
2022/09/02 05:45:22;;;;;;;;;;;25.00;78.80;;;;;;5038427;28;20347;-61
2022/09/02 05:47:51;;;;;;;;;;;25.00;78.90;;;;;;5033062;28;19936;-62
2022/09/02 05:50:19;;;;;;;;;;;25.00;78.80;;;;;;5044403;28;19929;-58
2022/09/02 05:52:50;;;;;;;;;;;25.00;78.90;;;;;;5054204;28;19924;-62
2022/09/02 05:55:20;;;;;;;;;;;25.00;78.90;;;;;;5064816;28;19928;-58
2022/09/02 05:57:48;;;;;;;;;;;25.00;78.90;;;;;;5054064;28;19933;-61
2022/09/02 06:00:16;;;;;;;;;;;25.00;78.90;;;;;;5048788;28;19929;-62
2022/09/02 06:02:54;;;;;;;;;;;25.00;78.90;;;;;;5030411;28;19936;-56
2022/09/02 06:05:33;;;;;;;;;;;25.00;78.90;;;;;;5035503;28;19936;-60
2022/09/02 06:08:07;;;;;;;;;;;25.00;78.90;;;;;;5041763;28;19925;-62
2022/09/02 06:10:39;;;;;;;;;;;25.00;78.90;;;;;;5040607;28;19933;-59
2022/09/02 06:13:07;;;;;;;;;;;25.00;78.90;;;;;;5045437;28;19925;-62
2022/09/02 06:15:39;;;;;;;;;;;25.00;78.90;;;;;;5043205;28;19935;-61
2022/09/02 06:18:06;;;;;;;;;;;25.00;78.90;;;;;;5041720;28;20561;-59
2022/09/02 06:20:39;;;;;;;;;;;25.00;78.80;;;;;;5024570;28;19929;-59
2022/09/02 06:23:07;;;;;;;;;;;25.00;78.80;;;;;;5032917;28;19935;-60
2022/09/02 06:25:36;;;;;;;;;;;25.00;78.80;;;;;;5044047;28;19952;-60
2022/09/02 06:28:03;;;;;;;;;;;25.00;78.80;;;;;;5032849;28;20399;-60
2022/09/02 06:30:38;;;;;;;;;;;25.00;78.80;;;;;;5033135;28;19929;-58
2022/09/02 06:33:06;;;;;;;;;;;25.00;78.80;;;;;;5030536;28;20319;-61
2022/09/02 06:35:38;;;;;;;;;;;25.00;78.80;;;;;;5055043;28;19957;-62
2022/09/02 06:38:09;;;;;;;;;;;25.00;78.80;;;;;;5059302;28;19928;-61
2022/09/02 06:40:46;;;;;;;;;;;25.00;78.80;;;;;;5044596;28;19935;-61
2022/09/02 06:43:13;;;;;;;;;;;25.00;78.80;;;;;;5040264;28;19929;-60
2022/09/02 06:45:53;;;;;;;;;;;25.00;78.80;;;;;;5027911;28;19936;-60
2022/09/02 06:48:22;;;;;;;;;;;25.00;78.80;;;;;;5025852;28;19929;-58
2022/09/02 06:50:49;;;;;;;;;;;25.00;78.80;;;;;;5034793;28;19932;-63
2022/09/02 06:53:18;;;;;;;;;;;25.00;78.80;;;;;;5050727;28;19925;-59
2022/09/02 06:55:45;;;;;;;;;;;25.00;78.90;;;;;;5059172;28;19932;-59
2022/09/02 06:58:13;;;;;;;;;;;25.00;78.90;;;;;;5049332;28;19929;-62
2022/09/02 07:00:40;;;;;;;;;;;25.00;78.90;;;;;;5046386;28;19931;-65
2022/09/02 07:05:58;;;;;;;;;;;25.00;78.80;;;;;;5032688;28;19928;-61
2022/09/02 07:08:27;;;;;;;;;;;25.00;78.80;;;;;;5045180;28;19967;-60
2022/09/02 07:10:55;;;;;;;;;;;25.00;78.80;;;;;;5032113;28;19940;-61
2022/09/02 07:13:23;;;;;;;;;;;25.00;78.80;;;;;;5049934;28;19944;-58
2022/09/02 07:15:50;;;;;;;;;;;25.10;78.80;;;;;;5031402;28;19929;-55
2022/09/02 07:18:19;;;;;;;;;;;25.10;78.80;;;;;;5055848;28;19925;-61
2022/09/02 07:20:47;;;;;;;;;;;25.10;78.80;;;;;;5035129;28;19932;-62
2022/09/02 07:23:15;;;;;;;;;;;25.10;79.40;;;;;;5053339;28;20521;-56
2022/09/02 07:25:43;;;;;;;;;;;25.10;78.80;;;;;;5035056;28;19936;-64
2022/09/02 07:28:11;;;;;;;;;;;25.10;78.80;;;;;;5028033;28;19936;-61
2022/09/02 07:30:40;;;;;;;;;;;25.10;78.80;;;;;;5024426;28;19995;-60
2022/09/02 07:33:12;;;;;;;;;;;25.10;78.80;;;;;;5031117;28;20293;-62
2022/09/02 07:35:42;;;;;;;;;;;25.10;78.80;;;;;;5040654;28;19948;-61
2022/09/02 07:38:10;;;;;;;;;;;25.20;78.90;;;;;;5055740;28;19932;-63
2022/09/02 07:40:38;;;;;;;;;;;25.20;78.90;;;;;;5037911;28;19932;-60
2022/09/02 07:43:08;;;;;;;;;;;25.20;78.90;;;;;;5033165;28;19932;-61
2022/09/02 07:45:37;;;;;;;;;;;25.20;78.90;;;;;;5030968;28;19928;-62
2022/09/02 07:48:07;;;;;;;;;;;25.20;78.90;;;;;;5033983;28;19925;-61
2022/09/02 07:50:37;;;;;;;;;;;25.20;79.00;;;;;;5033203;28;19929;-58
2022/09/02 07:53:06;;;;;;;;;;;25.20;78.90;;;;;;5049459;28;19932;-60
2022/09/02 07:55:35;;;;;;;;;;;25.20;79.00;;;;;;5030396;28;19939;-60
2022/09/02 07:58:04;;;;;;;;;;;25.20;79.00;;;;;;5034385;28;20315;-59
2022/09/02 08:00:32;;;;;;;;;;;25.20;78.90;;;;;;5037008;28;20339;-58
2022/09/02 08:03:06;;;;;;;;;;;25.20;78.90;;;;;;5029336;28;20412;-60
2022/09/02 08:05:38;;;;;;;;;;;25.20;78.90;;;;;;5024794;28;19928;-62
2022/09/02 08:08:06;;;;;;;;;;;25.20;78.90;;;;;;5045420;28;20475;-60
2022/09/02 08:10:34;;;;;;;;;;;25.20;79.00;;;;;;5045300;28;19929;-60
2022/09/02 08:13:04;;;;;;;;;;;25.20;79.00;;;;;;5034031;28;19933;-60
2022/09/02 08:15:32;;;;;;;;;;;25.30;79.10;;;;;;5042751;28;19928;-59
2022/09/02 08:17:59;;;;;;;;;;;25.30;79.00;;;;;;5056522;28;19940;-59
2022/09/02 08:20:26;;;;;;;;;;;25.30;79.00;;;;;;5056780;28;19944;-57
2022/09/02 08:22:53;;;;;;;;;;;25.30;79.60;;;;;;5028186;28;19929;-56
2022/09/02 08:25:39;;;;;;;;;;;25.30;79.00;;;;;;5042583;28;20332;-61
2022/09/02 08:28:07;;;;;;;;;;;25.30;79.00;;;;;;5041812;28;19929;-56
2022/09/02 08:30:34;;;;;;;;;;;25.30;79.10;;;;;;5051140;28;20384;-59
2022/09/02 08:33:01;;;;;;;;;;;25.30;79.00;;;;;;5048650;28;20399;-63
2022/09/02 08:35:28;;;;;;;;;;;25.30;79.10;;;;;;5046359;28;20331;-59
2022/09/02 08:37:58;;;;;;;;;;;25.30;79.10;;;;;;5041735;28;19929;-62
2022/09/02 08:40:33;;;;;;;;;;;25.40;79.20;;;;;;5047698;28;19933;-61
2022/09/02 08:43:02;;;;;;;;;;;25.40;79.20;;;;;;5040331;28;19932;-62
2022/09/02 08:45:34;;;;;;;;;;;25.40;79.20;;;;;;5050252;28;19932;-59
2022/09/02 08:48:13;;;;;;;;;;;25.40;79.20;;;;;;5041797;28;19925;-58
2022/09/02 08:50:43;;;;;;;;;;;25.40;79.20;;;;;;5045009;28;19936;-59
2022/09/02 09:01:07;;;;;;;;;;;25.40;79.30;;;;;;4597542;28;19922;-52
2022/09/02 09:03:40;;;;;;;;;;;25.40;79.30;;;;;;4995285;28;19929;-51
2022/09/02 09:06:16;;;;;;;;;;;25.40;79.30;;;;;;5000914;28;20344;-52
2022/09/02 09:08:53;;;;;;;;;;;25.40;79.30;;;;;;4988773;28;19929;-56
2022/09/02 09:11:25;;;;;;;;;;;25.40;79.30;;;;;;4994637;28;19937;-50
2022/09/02 09:13:56;;;;;;;;;;;25.40;79.30;;;;;;4997864;28;19929;-55
2022/09/02 09:16:26;;;;;;;;;;;25.40;79.90;;;;;;4995343;28;19930;-53
2022/09/02 09:19:21;;;;;;;;;;;25.40;79.30;;;;;;4994472;28;19937;-52
2022/09/02 09:21:48;;;;;;;;;;;25.40;79.30;;;;;;4990307;28;19930;-53
2022/09/02 09:24:27;;;;;;;;;;;25.40;79.30;;;;;;5002509;28;19933;-53
2022/09/02 09:26:55;;;;;;;;;;;25.40;79.30;;;;;;4993624;28;20313;-57
2022/09/02 09:29:22;;;;;;;;;;;25.40;79.30;;;;;;4999544;28;20604;-54
2022/09/02 09:31:57;;;;;;;;;;;25.40;79.30;;;;;;4991741;28;19930;-54
2022/09/02 09:34:44;;;;;;;;;;;25.40;79.30;;;;;;4997804;28;20340;-54
2022/09/02 09:37:26;;;;;;;;;;;25.40;79.30;;;;;;4997365;28;20293;-53
2022/09/02 09:39:53;;;;;;;;;;;25.40;79.40;;;;;;4992440;28;20321;-54
2022/09/02 09:42:29;;;;;;;;;;;25.40;79.40;;;;;;4992024;28;19937;-52
2022/09/02 09:44:56;;;;;;;;;;;25.40;79.40;;;;;;4999435;28;19936;-54
2022/09/02 09:47:25;;;;;;;;;;;25.40;79.40;;;;;;4991160;28;19930;-53
2022/09/02 09:50:04;;;;;;;;;;;25.40;79.40;;;;;;4994725;28;20271;-53
2022/09/02 09:52:31;;;;;;;;;;;25.50;79.50;;;;;;5010074;28;19953;-48
2022/09/02 09:55:14;;;;;;;;;;;25.40;79.40;;;;;;5000452;28;19930;-51
2022/09/02 09:57:50;;;;;;;;;;;25.40;79.40;;;;;;4992732;28;20318;-56
2022/09/02 10:00:20;;;;;;;;;;;25.40;79.40;;;;;;4993422;28;19930;-55
2022/09/02 10:02:52;;;;;;;;;;;25.50;79.50;;;;;;4992697;28;19933;-56
2022/09/02 10:05:25;;;;;;;;;;;25.40;79.40;;;;;;4992310;28;20371;-55
2022/09/02 10:08:27;;;;;;;;;;;25.40;79.40;;;;;;5001394;28;19930;-56
2022/09/02 10:11:02;;;;;;;;;;;25.50;79.50;;;;;;4984047;28;19926;-54
2022/09/02 10:13:30;;;;;;;;;;;25.40;79.30;;;;;;5000092;28;19930;-55
2022/09/02 10:15:57;;;;;;;;;;;25.50;79.40;;;;;;4996071;28;19925;-54
2022/09/02 10:18:24;;;;;;;;;;;25.50;79.40;;;;;;4991939;28;19926;-53
2022/09/02 10:21:20;;;;;;;;;;;25.50;79.40;;;;;;4991817;28;19926;-54
2022/09/02 10:24:02;;;;;;;;;;;25.40;79.30;;;;;;4962153;28;20396;-56
2022/09/02 10:26:46;;;;;;;;;;;25.40;79.30;;;;;;5014827;28;20283;-55
2022/09/02 10:29:32;;;;;;;;;;;25.40;79.20;;;;;;4997513;28;20317;-52
2022/09/02 10:32:03;;;;;;;;;;;25.40;79.30;;;;;;4993592;28;19926;-54
2022/09/02 10:34:37;;;;;;;;;;;25.40;79.20;;;;;;4998426;28;20274;-53
2022/09/02 10:37:07;;;;;;;;;;;25.50;79.20;;;;;;5001412;28;20403;-53
2022/09/02 10:39:53;;;;;;;;;;;25.40;79.20;;;;;;5004519;28;20596;-52
2022/09/02 10:42:30;;;;;;;;;;;25.50;79.20;;;;;;4995731;28;19937;-54
2022/09/02 10:45:03;;;;;;;;;;;25.40;79.10;;;;;;4990967;28;19930;-54
2022/09/02 10:47:36;;;;;;;;;;;25.50;79.20;;;;;;4998871;28;19926;-57
2022/09/02 10:50:22;;;;;;;;;;;25.50;79.20;;;;;;4991940;28;20282;-53
2022/09/02 10:52:56;;;;;;;;;;;25.50;79.10;;;;;;5001242;28;20252;-53
2022/09/02 10:55:23;;;;;;;;;;;25.50;79.20;;;;;;4992166;28;19936;-57
2022/09/02 10:57:58;;;;;;;;;;;25.50;79.20;;;;;;4995722;28;20016;-58
2022/09/02 11:00:28;;;;;;;;;;;25.40;79.10;;;;;;4999238;28;19941;-59
2022/09/02 11:03:02;;;;;;;;;;;25.40;79.00;;;;;;4997959;28;19930;-55
2022/09/02 11:05:50;;;;;;;;;;;25.50;79.00;;;;;;5003861;28;20320;-55
2022/09/02 11:08:34;;;;;;;;;;;25.50;79.00;;;;;;4999874;28;20226;-55
2022/09/02 11:11:10;;;;;;;;;;;25.50;79.00;;;;;;4993776;28;20305;-56
2022/09/02 11:13:48;;;;;;;;;;;25.50;79.00;;;;;;4992879;28;20029;-52
2022/09/02 11:16:19;;;;;;;;;;;25.50;79.00;;;;;;4989460;28;19929;-54
2022/09/02 11:19:04;;;;;;;;;;;25.50;79.00;;;;;;4999166;28;20387;-57
2022/09/02 11:21:50;;;;;;;;;;;25.50;79.10;;;;;;4989851;28;19949;-51
2022/09/02 11:24:27;;;;;;;;;;;25.50;79.10;;;;;;4992789;28;19948;-53
2022/09/02 11:27:07;;;;;;;;;;;25.50;79.00;;;;;;4999586;28;19925;-57
2022/09/02 11:30:06;;;;;;;;;;;25.50;79.00;;;;;;4994470;28;19933;-54
2022/09/02 11:32:56;;;;;;;;;;;25.50;79.00;;;;;;4999459;28;19937;-48
2022/09/02 11:35:27;;;;;;;;;;;25.50;79.00;;;;;;4989627;28;19930;-56
2022/09/02 11:38:14;;;;;;;;;;;25.50;79.00;;;;;;4995506;28;19926;-51
2022/09/02 11:40:41;;;;;;;;;;;25.50;79.00;;;;;;4990281;28;19926;-52
2022/09/02 11:43:27;;;;;;;;;;;25.50;79.00;;;;;;4988689;28;20282;-54
2022/09/02 11:45:55;;;;;;;;;;;25.40;78.90;;;;;;4990235;28;20384;-53
2022/09/02 11:48:28;;;;;;;;;;;25.50;79.00;;;;;;5000360;28;20325;-53
2022/09/02 11:51:11;;;;;;;;;;;25.50;79.00;;;;;;4991630;28;20257;-53
2022/09/02 11:53:42;;;;;;;;;;;25.50;79.00;;;;;;4991477;28;20048;-55
2022/09/02 11:56:18;;;;;;;;;;;25.50;79.00;;;;;;4997788;28;19932;-51
2022/09/02 11:58:47;;;;;;;;;;;25.50;79.00;;;;;;5001291;28;19929;-57
2022/09/02 12:01:14;;;;;;;;;;;25.50;79.00;;;;;;5006791;28;19929;-54
2022/09/02 12:03:45;;;;;;;;;;;25.50;79.00;;;;;;4991206;28;19937;-59
2022/09/02 12:06:33;;;;;;;;;;;25.50;78.90;;;;;;4992806;28;19929;-57
2022/09/02 12:09:02;;;;;;;;;;;25.50;78.90;;;;;;4993133;28;19936;-52
2022/09/02 12:11:41;;;;;;;;;;;25.50;78.90;;;;;;4991467;28;19930;-58
2022/09/02 12:14:12;;;;;;;;;;;25.50;78.90;;;;;;5000545;28;20424;-53
2022/09/02 12:16:43;;;;;;;;;;;25.50;78.90;;;;;;4991649;28;20206;-56
2022/09/02 12:19:10;;;;;;;;;;;25.50;78.90;;;;;;4996600;28;19956;-52
2022/09/02 12:22:00;;;;;;;;;;;25.50;78.80;;;;;;4988930;28;19953;-53
2022/09/02 12:24:46;;;;;;;;;;;25.50;78.80;;;;;;4998845;28;19933;-54
2022/09/02 12:27:20;;;;;;;;;;;25.50;78.80;;;;;;4997460;28;20408;-53
2022/09/02 12:29:47;;;;;;;;;;;25.50;78.80;;;;;;4988745;28;19942;-52
2022/09/02 12:32:38;;;;;;;;;;;25.50;78.70;;;;;;5018748;28;19937;-53
2022/09/02 12:35:10;;;;;;;;;;;25.50;78.70;;;;;;4988309;28;19936;-53
2022/09/02 12:37:52;;;;;;;;;;;25.50;78.70;;;;;;4990230;28;19930;-53
2022/09/02 12:40:25;;;;;;;;;;;25.50;78.70;;;;;;4990799;28;19948;-57
2022/09/02 12:43:00;;;;;;;;;;;25.50;78.70;;;;;;4997872;28;19945;-54
2022/09/02 12:45:30;;;;;;;;;;;25.50;78.60;;;;;;5000141;28;19964;-58
2022/09/02 12:48:08;;;;;;;;;;;25.50;78.60;;;;;;4996887;28;20000;-55
2022/09/02 12:50:53;;;;;;;;;;;25.50;78.70;;;;;;4990909;28;19937;-50
2022/09/02 12:53:23;;;;;;;;;;;25.50;78.70;;;;;;5002326;28;20518;-56
2022/09/02 12:55:55;;;;;;;;;;;25.50;78.80;;;;;;4998760;28;20502;-52
2022/09/02 12:58:23;;;;;;;;;;;25.50;78.90;;;;;;5002879;28;20656;-51
2022/09/02 13:00:50;;;;;;;;;;;25.50;78.80;;;;;;4997490;28;19929;-56
2022/09/02 13:03:24;;;;;;;;;;;25.50;78.70;;;;;;4994374;28;20456;-49
2022/09/02 13:05:58;;;;;;;;;;;25.60;78.80;;;;;;4998189;28;19929;-55
2022/09/02 13:08:41;;;;;;;;;;;25.60;78.80;;;;;;5007861;28;19929;-53
2022/09/02 13:11:26;;;;;;;;;;;25.60;78.80;;;;;;5004062;28;20381;-55
2022/09/02 13:14:05;;;;;;;;;;;25.60;78.80;;;;;;4991911;28;19930;-52
2022/09/02 13:16:32;;;;;;;;;;;25.70;78.90;;;;;;4993420;28;19926;-57
2022/09/02 13:19:09;;;;;;;;;;;25.70;78.90;;;;;;4997081;28;19933;-53
2022/09/02 13:21:37;;;;;;;;;;;25.70;79.00;;;;;;5004880;28;19930;-55
2022/09/02 13:24:04;;;;;;;;;;;25.70;79.10;;;;;;4991826;28;19934;-50
2022/09/02 13:26:50;;;;;;;;;;;25.80;79.20;;;;;;5000847;28;19930;-54
2022/09/02 13:29:32;;;;;;;;;;;25.80;79.20;;;;;;4995878;28;19953;-52
2022/09/02 13:32:03;;;;;;;;;;;25.80;79.20;;;;;;4993927;28;19926;-59
2022/09/02 13:34:31;;;;;;;;;;;25.90;79.20;;;;;;5000286;28;19930;-58
2022/09/02 13:36:58;;;;;;;;;;;25.90;79.20;;;;;;5014712;28;19933;-58
2022/09/02 13:39:26;;;;;;;;;;;25.90;79.10;;;;;;5004744;28;19926;-51
2022/09/02 13:41:53;;;;;;;;;;;26.00;79.10;;;;;;4998259;28;20333;-54
2022/09/02 13:44:24;;;;;;;;;;;26.00;79.00;;;;;;4997052;28;20314;-54
2022/09/02 13:46:53;;;;;;;;;;;26.00;78.90;;;;;;4998076;28;20389;-50
2022/09/02 13:49:21;;;;;;;;;;;26.00;78.80;;;;;;4999610;28;20004;-56
2022/09/02 13:51:51;;;;;;;;;;;26.10;78.80;;;;;;4995462;28;20313;-54
2022/09/02 13:54:27;;;;;;;;;;;26.10;78.70;;;;;;4993395;28;19941;-51
2022/09/02 13:56:55;;;;;;;;;;;26.20;78.70;;;;;;4992901;28;19926;-54
2022/09/02 13:59:32;;;;;;;;;;;26.20;78.60;;;;;;4991782;28;20321;-55
2022/09/02 14:02:14;;;;;;;;;;;26.30;78.60;;;;;;4994533;28;20282;-55
2022/09/02 14:04:41;;;;;;;;;;;26.30;78.50;;;;;;4997492;28;19948;-51
2022/09/02 14:07:09;;;;;;;;;;;26.30;78.50;;;;;;4991118;28;19934;-55
2022/09/02 14:09:38;;;;;;;;;;;26.40;78.40;;;;;;5000209;28;19930;-56
2022/09/02 14:12:05;;;;;;;;;;;26.40;78.40;;;;;;4998772;28;19934;-53
2022/09/02 14:14:33;;;;;;;;;;;26.40;78.30;;;;;;5008445;28;20459;-55
2022/09/02 14:17:20;;;;;;;;;;;26.50;78.30;;;;;;4991445;28;19944;-52
2022/09/02 14:19:47;;;;;;;;;;;26.50;78.20;;;;;;5002262;28;19940;-56
2022/09/02 14:22:25;;;;;;;;;;;26.60;78.20;;;;;;4989600;28;19933;-54
2022/09/02 14:24:53;;;;;;;;;;;26.60;78.10;;;;;;5003746;28;19933;-53
2022/09/02 14:27:21;;;;;;;;;;;26.60;78.00;;;;;;5006480;28;19929;-56
2022/09/02 14:29:55;;;;;;;;;;;26.70;78.10;;;;;;5004661;28;19937;-52
2022/09/02 14:32:24;;;;;;;;;;;26.70;78.00;;;;;;4993170;28;19929;-53
2022/09/02 14:35:06;;;;;;;;;;;26.80;77.90;;;;;;5013419;28;19937;-52
2022/09/02 14:37:45;;;;;;;;;;;26.80;77.80;;;;;;4991027;28;19925;-56
2022/09/02 14:40:13;;;;;;;;;;;26.80;77.80;;;;;;4992519;28;19930;-52
2022/09/02 14:42:48;;;;;;;;;;;26.80;77.60;;;;;;4989701;28;19937;-55
2022/09/02 14:45:28;;;;;;;;;;;26.90;77.60;;;;;;4998262;28;19929;-51
2022/09/02 14:47:56;;;;;;;;;;;26.90;77.60;;;;;;5000996;28;19952;-55
2022/09/02 14:50:31;;;;;;;;;;;27.00;77.50;;;;;;4998792;28;19930;-50
2022/09/02 14:53:02;;;;;;;;;;;27.00;77.50;;;;;;4996650;28;19929;-57
2022/09/02 14:55:39;;;;;;;;;;;27.00;77.40;;;;;;5000037;28;19929;-56
2022/09/02 14:58:06;;;;;;;;;;;27.10;77.30;;;;;;5040068;23;19928;-57